Sv.ap.joan — LZG2225 — position and weather

sailwx.info

Track history (hours):
 
Tides and Currents Weather Stations Pressure Air Temp Water Temp Dewpoint Dewpoint Depression Visibility Wind Speed Wind Dir Waves Ship Positions

Sv.ap.joan

Last reported at 2018-Jun-19 08:38 UTC. Time now 2018-Jun-20 23:08 UTC.
Position N 47°47' E 017°40'.

Length 80 m; draft 2.2 m.

Type: Ship. MMSI: 207072225.

Date/timePositionNaut miles runAvg speedWind from/ knotsBaromVisibWave heightAir tempDewpointWater temp
2018-Jun-19 08:38N 47°47' E 017°40'2 8.5
2018-Jun-19 08:23N 47°48' E 017°38'3 8.0
2018-Jun-19 08:00N 47°51' E 017°35'3 4.7
2018-Jun-19 07:22N 47°53' E 017°32'1 2.5
2018-Jun-19 07:00N 47°54' E 017°32'4 8.5
2018-Jun-19 06:30N 47°57' E 017°27'4 7.8
2018-Jun-19 06:00N 47°59' E 017°23'4 7.4
2018-Jun-19 05:30N 48°00' E 017°17'4 7.8
2018-Jun-19 05:00N 48°03' E 017°13'3 6.0
2018-Jun-19 04:30N 48°05' E 017°09'0 0.1
2018-Jun-19 03:58N 48°05' E 017°09'0 0.0
2018-Jun-19 03:25N 48°05' E 017°09'0 0.0
2018-Jun-19 02:58N 48°05' E 017°09'0 0.0
2018-Jun-19 02:28N 48°05' E 017°09'0 0.0
2018-Jun-19 01:58N 48°05' E 017°09'0 0.0
2018-Jun-19 01:25N 48°05' E 017°09'0 0.0
2018-Jun-19 00:55N 48°05' E 017°09'0 0.0
2018-Jun-19 00:25N 48°05' E 017°09'0 0.0
2018-Jun-18 23:58N 48°05' E 017°09'0 0.0
2018-Jun-18 23:28N 48°05' E 017°09'0 0.0
2018-Jun-18 22:58N 48°05' E 017°09'0 0.0
2018-Jun-18 22:28N 48°05' E 017°09'0 0.0
2018-Jun-18 21:58N 48°05' E 017°09'0 0.0
2018-Jun-18 21:28N 48°05' E 017°09'0 0.0
2018-Jun-18 20:58N 48°05' E 017°09'0 0.0
2018-Jun-18 20:28N 48°05' E 017°09'0 0.0
2018-Jun-18 19:58N 48°05' E 017°09'0 0.0
2018-Jun-18 19:28N 48°05' E 017°09'0 0.0
2018-Jun-18 18:58N 48°05' E 017°09'0 0.0
2018-Jun-18 18:22N 48°05' E 017°09'0 0.0
2018-Jun-18 17:58N 48°05' E 017°09'0 0.4
2018-Jun-18 17:31N 48°04' E 017°09'3 6.5
2018-Jun-18 17:00N 48°08' E 017°09'4 8.2
2018-Jun-18 16:30N 48°09' E 017°03'4 8.0
2018-Jun-18 16:00N 48°10' E 016°57'105 3.0
2018-Jun-17 04:56N 48°17' E 014°21'0 0.1
2018-Jun-17 01:32N 48°18' E 014°20'0 0.0
2018-Jun-17 01:20N 48°18' E 014°20'0 0.0
2018-Jun-16 22:14N 48°18' E 014°20'0 0.0
2018-Jun-16 21:14N 48°18' E 014°20'0 0.0
2018-Jun-16 20:56N 48°18' E 014°20'0 0.0
2018-Jun-16 19:32N 48°18' E 014°20'0 0.0
2018-Jun-16 19:14N 48°18' E 014°20'0 0.0
2018-Jun-16 17:50N 48°18' E 014°20'0 0.0
2018-Jun-16 17:20N 48°18' E 014°20'0 0.0
2018-Jun-16 16:32N 48°18' E 014°20'0 0.0
2018-Jun-16 16:29N 48°18' E 014°20'2 3.2
2018-Jun-16 15:59N 48°19' E 014°19'  
Track history (hours):
 
Tides and Currents Weather Stations Pressure Air Temp Water Temp Dewpoint Dewpoint Depression Visibility Wind Speed Wind Dir Waves Ship Positions

Sv.ap.joan

Last reported at 2018-Jun-19 08:38 UTC. Time now 2018-Jun-20 23:08 UTC.
Position N 47°47' E 017°40'.

Length 80 m; draft 2.2 m.

Type: Ship. MMSI: 207072225.

Date/timePositionNaut miles runAvg speedWind from/ knotsBaromVisibWave heightAir tempDewpointWater temp
2018-Jun-19 08:38N 47°47' E 017°40'2 8.5
2018-Jun-19 08:23N 47°48' E 017°38'3 8.0
2018-Jun-19 08:00N 47°51' E 017°35'3 4.7
2018-Jun-19 07:22N 47°53' E 017°32'1 2.5
2018-Jun-19 07:00N 47°54' E 017°32'4 8.5
2018-Jun-19 06:30N 47°57' E 017°27'4 7.8
2018-Jun-19 06:00N 47°59' E 017°23'4 7.4
2018-Jun-19 05:30N 48°00' E 017°17'4 7.8
2018-Jun-19 05:00N 48°03' E 017°13'3 6.0
2018-Jun-19 04:30N 48°05' E 017°09'0 0.1
2018-Jun-19 03:58N 48°05' E 017°09'0 0.0
2018-Jun-19 03:25N 48°05' E 017°09'0 0.0
2018-Jun-19 02:58N 48°05' E 017°09'0 0.0
2018-Jun-19 02:28N 48°05' E 017°09'0 0.0
2018-Jun-19 01:58N 48°05' E 017°09'0 0.0
2018-Jun-19 01:25N 48°05' E 017°09'0 0.0
2018-Jun-19 00:55N 48°05' E 017°09'0 0.0
2018-Jun-19 00:25N 48°05' E 017°09'0 0.0
2018-Jun-18 23:58N 48°05' E 017°09'0 0.0
2018-Jun-18 23:28N 48°05' E 017°09'0 0.0
2018-Jun-18 22:58N 48°05' E 017°09'0 0.0
2018-Jun-18 22:28N 48°05' E 017°09'0 0.0
2018-Jun-18 21:58N 48°05' E 017°09'0 0.0
2018-Jun-18 21:28N 48°05' E 017°09'0 0.0
2018-Jun-18 20:58N 48°05' E 017°09'0 0.0
2018-Jun-18 20:28N 48°05' E 017°09'0 0.0
2018-Jun-18 19:58N 48°05' E 017°09'0 0.0
2018-Jun-18 19:28N 48°05' E 017°09'0 0.0
2018-Jun-18 18:58N 48°05' E 017°09'0 0.0
2018-Jun-18 18:22N 48°05' E 017°09'0 0.0
2018-Jun-18 17:58N 48°05' E 017°09'0 0.4
2018-Jun-18 17:31N 48°04' E 017°09'3 6.5
2018-Jun-18 17:00N 48°08' E 017°09'4 8.2
2018-Jun-18 16:30N 48°09' E 017°03'4 8.0
2018-Jun-18 16:00N 48°10' E 016°57'105 3.0
2018-Jun-17 04:56N 48°17' E 014°21'0 0.1
2018-Jun-17 01:32N 48°18' E 014°20'0 0.0
2018-Jun-17 01:20N 48°18' E 014°20'0 0.0
2018-Jun-16 22:14N 48°18' E 014°20'0 0.0
2018-Jun-16 21:14N 48°18' E 014°20'0 0.0
2018-Jun-16 20:56N 48°18' E 014°20'0 0.0
2018-Jun-16 19:32N 48°18' E 014°20'0 0.0
2018-Jun-16 19:14N 48°18' E 014°20'0 0.0
2018-Jun-16 17:50N 48°18' E 014°20'0 0.0
2018-Jun-16 17:20N 48°18' E 014°20'0 0.0
2018-Jun-16 16:32N 48°18' E 014°20'0 0.0
2018-Jun-16 16:29N 48°18' E 014°20'2 3.2
2018-Jun-16 15:59N 48°19' E 014°19'  

Dump ship's entire track history